This is the latest recevied weather packets stored in our database for station/object TG8AKV-17. If no packets are shown the sender has not sent any weather packets the latest 10 day(s).
| Time | Temp. | Humidity | Pressure | Rain* | Wind** | Luminosity | Snow |
|---|---|---|---|---|---|---|---|
| 1778266046 | 18.89° C | 77% | 1013 hPa | 0 mm | - | - | - |
| 1778265445 | 18.89° C | 77% | 1014 hPa | 0 mm | - | - | - |
| 1778264844 | 27.22° C | 35% | 1014 hPa | 0 mm | - | - | - |
| 1778264243 | 27.22° C | 34% | 1014 hPa | 0 mm | - | - | - |
| 1778263642 | 26.11° C | 36% | 1014 hPa | 0 mm | - | - | - |
| 1778263042 | 25° C | 37% | 1014 hPa | 0 mm | - | - | - |
| 1778262441 | 25° C | 38% | 1014 hPa | 0 mm | - | - | - |
| 1778261841 | 25° C | 39% | 1014 hPa | 0 mm | - | - | - |
| 1778261240 | 25° C | 39% | 1014 hPa | 0 mm | - | - | - |
| 1778260640 | 24.44° C | 41% | 1014 hPa | 0 mm | - | - | - |
| 1778260039 | 23.89° C | 45% | 1014 hPa | 0 mm | - | - | - |
| 1778259439 | 22.78° C | 54% | 1014 hPa | 0 mm | - | - | - |
| 1778258838 | 22.78° C | 56% | 1014 hPa | 0 mm | - | - | - |
| 1778258238 | 22.78° C | 60% | 1015 hPa | 0 mm | - | - | - |
| 1778257637 | 22.78° C | 60% | 1015 hPa | 0 mm | - | - | - |
| 1778257036 | 22.22° C | 62% | 1015 hPa | 0 mm | - | - | - |
| 1778256436 | 21.11° C | 64% | 1015 hPa | 0 mm | - | - | - |
| 1778255835 | 18.89° C | 69% | 1015 hPa | 0 mm | - | - | - |
| 1778255235 | 18.89° C | 69% | 1015 hPa | 0 mm | - | - | - |
| 1778254634 | 18.89° C | 70% | 1015 hPa | 0 mm | - | - | - |
| 1778254034 | 18.89° C | 71% | 1015 hPa | 0 mm | - | - | - |
| 1778253433 | 18.89° C | 71% | 1015 hPa | 0 mm | - | - | - |
| 1778252833 | 18.89° C | 69% | 1015 hPa | 0 mm | - | - | - |
| 1778252232 | 18.33° C | 71% | 1015 hPa | 0 mm | - | - | - |
| 1778251632 | 20° C | 66% | 1015 hPa | 0 mm | - | - | - |
* Rain latest hour (hover to see other rain measurements)
** Current wind speed in m/s (hover to see current wind gust speed)